EBAW/ANR METAR and TAF weather

Enter ICAO airport designator
Station Type Date Time Source
EBAW METAR 2019/04/26 03:20 UTC NOAA

EBAW 260320Z AUTO 20005KT CAVOK 09/07 Q1010


Station Type Date Time Source
EBAW Decoded METAR 2019/04/26 03:20 UTC NOAA

Antwerpen / Deurne, Belgium (EBAW) 51-12N 004-28E 14M
Apr 25, 2019 - 11:20 PM EDT / 2019.04.26 0320 UTC
Wind: from the SSW (200 degrees) at 6 MPH (5 KT):0
Visibility: greater than 7 mile(s):0
Temperature: 48 F (9 C)
Dew Point: 44 F (7 C)
Relative Humidity: 87%
Pressure (altimeter): 29.83 in. Hg (1010 hPa)
ob: EBAW 260320Z AUTO 20005KT CAVOK 09/07 Q1010
cycle: 3

Station Type Date Time Source
EBAW TAF 2019/04/21 09:57 UTC NOAA

TAF COR TAF COR EBAW 210813Z 2109/2121 07005KT CAVOK

Example: see airport list